METAR Data
IDs: Format: Raw Decoded Include TAF

Data at: 1201 UTC 23 Sep 2018

KADU 231155Z AUTO 00000KT 10SM CLR 08/07 A3008 RMK AO2
KADU 231135Z AUTO 00000KT 10SM CLR 08/07 A3008 RMK AO2
KADU 231115Z AUTO 00000KT 10SM CLR 08/07 A3008 RMK AO2
KADU 231055Z AUTO 00000KT 10SM CLR 08/07 A3008 RMK AO2
KADU 231035Z AUTO 00000KT 10SM CLR 09/07 A3008 RMK AO2
KADU 231015Z AUTO 00000KT 10SM CLR 08/07 A3008 RMK AO2
KADU 230955Z AUTO 00000KT 10SM CLR 08/07 A3008 RMK AO2
KADU 230935Z AUTO 00000KT 10SM CLR 08/07 A3008 RMK AO2
KADU 230915Z AUTO 00000KT 10SM CLR 08/06 A3008 RMK AO2
KADU 230855Z AUTO 00000KT 10SM CLR 08/06 A3008 RMK AO2
KADU 230815Z AUTO 00000KT 10SM CLR 08/07 A3009 RMK AO2
KADU 230755Z AUTO 00000KT 10SM CLR 08/06 A3009 RMK AO2
KADU 230735Z AUTO 00000KT 10SM CLR 08/06 A3009 RMK AO2
KADU 230715Z AUTO 00000KT 10SM CLR 08/06 A3009 RMK AO2
KADU 230655Z AUTO 00000KT 10SM CLR 09/07 A3009 RMK AO2
KADU 230635Z AUTO 00000KT 10SM CLR 09/07 A3010 RMK AO2
KADU 230615Z AUTO 00000KT 10SM CLR 09/07 A3009 RMK AO2
KADU 230555Z AUTO 00000KT 10SM CLR 09/08 A3009 RMK AO2
KADU 230535Z AUTO 00000KT 10SM CLR 09/08 A3009 RMK AO2
KADU 230515Z AUTO 00000KT 10SM CLR 10/08 A3010 RMK AO2
KADU 230455Z AUTO 00000KT 10SM CLR 11/08 A3010 RMK AO2
KADU 230435Z AUTO 00000KT 10SM CLR 11/08 A3010 RMK AO2
KADU 230415Z AUTO 00000KT 10SM CLR 11/09 A3011 RMK AO2
KADU 230355Z AUTO 00000KT 10SM CLR 11/08 A3011 RMK AO2
KADU 230335Z AUTO 00000KT 10SM CLR 11/08 A3011 RMK AO2
KADU 230315Z AUTO 00000KT 10SM CLR 12/09 A3011 RMK AO2
KADU 230255Z AUTO 00000KT 10SM CLR 12/09 A3011 RMK AO2
KADU 230235Z AUTO 00000KT 10SM CLR 13/09 A3011 RMK AO2
KADU 230215Z AUTO 00000KT 10SM CLR 13/10 A3011 RMK AO2
KADU 230155Z AUTO 00000KT 10SM CLR 13/10 A3011 RMK AO2
KADU 230135Z AUTO 00000KT 10SM CLR 13/09 A3011 RMK AO2
KADU 230115Z AUTO 00000KT 10SM CLR 13/09 A3011 RMK AO2
KADU 230055Z AUTO 00000KT 10SM CLR 14/10 A3011 RMK AO2
KADU 230035Z AUTO 00000KT 10SM CLR 16/11 A3011 RMK AO2
KADU 230015Z AUTO 00000KT 10SM CLR 17/11 A3011 RMK AO2
KADU 222355Z AUTO 00000KT 10SM CLR 18/11 A3011 RMK AO2
KADU 222335Z AUTO 00000KT 10SM CLR 19/10 A3011 RMK AO2
KADU 222315Z AUTO 00000KT 10SM CLR 20/09 A3011 RMK AO2
KADU 222255Z AUTO 18007KT 10SM CLR 21/09 A3012 RMK AO2
KADU 222235Z AUTO 00000KT 10SM CLR 21/09 A3012 RMK AO2
KADU 222215Z AUTO 00000KT 10SM CLR 21/09 A3013 RMK AO2
KADU 222155Z AUTO 00000KT 10SM CLR 21/09 A3013 RMK AO2
KADU 222135Z AUTO 15004KT 10SM CLR 21/09 A3014 RMK AO2
KADU 222115Z AUTO 15003KT 10SM CLR 21/09 A3015 RMK AO2
KADU 222055Z AUTO 14007KT 10SM CLR 21/08 A3016 RMK AO2
KADU 222035Z AUTO 18006KT 10SM CLR 21/08 A3017 RMK AO2
KADU 222015Z AUTO 19009KT 10SM CLR 20/08 A3017 RMK AO2
KADU 221955Z AUTO 17005KT 10SM CLR 20/08 A3018 RMK AO2
KADU 221935Z AUTO 20004KT 10SM CLR 19/08 A3019 RMK AO2
KADU 221915Z AUTO 00000KT 10SM CLR 19/09 A3020 RMK AO2
KADU 221855Z AUTO 17009KT 10SM CLR 19/09 A3021 RMK AO2
KADU 221835Z AUTO 00000KT 10SM CLR 18/09 A3022 RMK AO2
KADU 221815Z AUTO 18008KT 10SM CLR 18/09 A3023 RMK AO2
KADU 221755Z AUTO 00000KT 10SM CLR 18/09 A3024 RMK AO2
KADU 221735Z AUTO 00000KT 10SM CLR 17/09 A3026 RMK AO2
KADU 221715Z AUTO 15006KT 10SM CLR 17/09 A3027 RMK AO2
KADU 221655Z AUTO 18006KT 10SM CLR 16/09 A3027 RMK AO2
KADU 221635Z AUTO 00000KT 10SM CLR 15/09 A3028 RMK AO2
KADU 221615Z AUTO 18009KT 10SM CLR 14/09 A3029 RMK AO2
KADU 221535Z AUTO 00000KT 10SM CLR 13/08 A3030 RMK AO2
KADU 221515Z AUTO 16005KT 10SM CLR 13/09 A3031 RMK AO2
KADU 221455Z AUTO 15005KT 10SM CLR 12/09 A3031 RMK AO2
KADU 221435Z AUTO 00000KT 10SM CLR 11/08 A3031 RMK AO2
KADU 221415Z AUTO 00000KT 10SM CLR 10/08 A3031 RMK AO2
KADU 221355Z AUTO 00000KT 10SM CLR 09/07 A3032 RMK AO2
KADU 221335Z AUTO 00000KT 10SM CLR 08/07 A3032 RMK AO2
KADU 221315Z AUTO 00000KT 10SM CLR 06/05 A3031 RMK AO2
KADU 221255Z AUTO 00000KT 10SM CLR 05/04 A3031 RMK AO2
KADU 221235Z AUTO 00000KT 10SM CLR 04/03 A3032 RMK AO2
KADU 221215Z AUTO 00000KT 10SM CLR 04/03 A3032 RMK AO2
KADU 221155Z AUTO 00000KT 10SM CLR 04/02 A3032 RMK AO2
KADU 221135Z AUTO 00000KT 10SM CLR 04/03 A3032 RMK AO2
KADU 221115Z AUTO 00000KT 10SM CLR 04/03 A3032 RMK AO2
KADU 221055Z AUTO 00000KT 10SM CLR 04/03 A3032 RMK AO2
KADU 221035Z AUTO 00000KT 10SM CLR 04/03 A3032 RMK AO2
KADU 221015Z AUTO 00000KT 10SM CLR 04/03 A3033 RMK AO2
KADU 220955Z AUTO 00000KT 10SM CLR 04/03 A3033 RMK AO2
KADU 220935Z AUTO 00000KT 10SM CLR 04/03 A3033 RMK AO2
KADU 220915Z AUTO 00000KT 10SM CLR 04/03 A3033 RMK AO2
KADU 220855Z AUTO 00000KT 10SM CLR 06/04 A3033 RMK AO2
KADU 220835Z AUTO 00000KT 10SM CLR 04/03 A3033 RMK AO2
KADU 220815Z AUTO 00000KT 10SM CLR 06/04 A3034 RMK AO2
KADU 220755Z AUTO 00000KT 10SM CLR 06/04 A3033 RMK AO2
KADU 220735Z AUTO 00000KT 10SM CLR 06/04 A3034 RMK AO2
KADU 220715Z AUTO 00000KT 10SM CLR 06/04 A3034 RMK AO2
KADU 220655Z AUTO 00000KT 10SM CLR 06/04 A3034 RMK AO2
KADU 220635Z AUTO 00000KT 10SM CLR 06/04 A3035 RMK AO2
KADU 220615Z AUTO 00000KT 10SM CLR 07/05 A3035 RMK AO2
KADU 220555Z AUTO 00000KT 10SM CLR 07/05 A3035 RMK AO2
KADU 220535Z AUTO 00000KT 10SM CLR 07/05 A3036 RMK AO2
KADU 220515Z AUTO 00000KT 10SM CLR 07/05 A3036 RMK AO2
KADU 220455Z AUTO 00000KT 10SM CLR 07/05 A3036 RMK AO2
KADU 220435Z AUTO 00000KT 10SM CLR 07/05 A3036 RMK AO2
KADU 220415Z AUTO 00000KT 10SM CLR 07/05 A3036 RMK AO2
KADU 220355Z AUTO 00000KT 10SM CLR 08/06 A3035 RMK AO2
KADU 220335Z AUTO 00000KT 10SM CLR 08/06 A3035 RMK AO2
KADU 220315Z AUTO 00000KT 10SM CLR 09/06 A3035 RMK AO2
KADU 220255Z AUTO 00000KT 10SM CLR 09/06 A3035 RMK AO2
KADU 220235Z AUTO 00000KT 10SM CLR 09/07 A3035 RMK AO2
KADU 220215Z AUTO 00000KT 10SM CLR 09/07 A3034 RMK AO2
KADU 220155Z AUTO 00000KT 10SM CLR 10/07 A3034 RMK AO2
KADU 220135Z AUTO 00000KT 10SM CLR 11/07 A3033 RMK AO2
KADU 220115Z AUTO 00000KT 10SM CLR 11/07 A3032 RMK AO2
KADU 220055Z AUTO 00000KT 10SM CLR 12/07 A3031 RMK AO2
KADU 220035Z AUTO 00000KT 10SM CLR 12/08 A3031 RMK AO2
KADU 220015Z AUTO 00000KT 10SM CLR 13/07 A3030 RMK AO2